Weather observations for the past three days for
Monterey Regional Airport
Imperial (Metric)
Date Time (pdt) Wind (mph) Vis. (mi.) Weather Sky Cond. Temperature (ºF) Relative Humidity Wind Chill (°F) Heat Index (°F) Pressure Precipitation (in)
Air Dwpt 6 hour altimeter (in) sea level (mb) 1 hr 3 hr 6 hr
Max. Min.
04 11:54 SW 13 G 18 10.00 Mostly Cloudy SCT024 BKN036 61 44.1 54% 30.02 1017.6
04 10:54 SW 10 10.00 Mostly Cloudy SCT026 BKN036 62.1 45 62.1 48 54% 30 1017.2
04 09:54 SW 9 10.00 Mostly Cloudy FEW025 BKN033 60.1 46 60% 29.99 1016.9
04 08:54 Calm 10.00 Fair CLR 57.9 46 65% 30 1017.0
04 07:54 Calm 10.00 Mostly Cloudy BKN049 53.1 46 77% 30 1017.0
04 06:54 E 7 10.00 Overcast OVC050 50 44.1 80% 48 29.99 1016.8
04 05:54 E 6 10.00 Fair CLR 48 44.1 86% 46 29.98 1016.3
04 04:54 E 3 10.00 Fair CLR 50 44.1 54 50 80% 29.98 1016.3 0.01
04 03:54 SE 5 10.00 Mostly Cloudy BKN045 51.1 46.9 86% 29.98 1016.3 0.01
04 02:54 S 5 9.00 Light Rain OVC039 53.1 48.9 86% 29.99 1016.6
04 01:54 SW 3 7.00 Light Rain SCT024 OVC036 53.1 48.9 86% 30 1016.9
04 00:54 S 5 10.00 Fair CLR 52 46.9 83% 30 1017.2
03 23:54 Calm 10.00 Fair CLR 51.1 46.9 86% 30 1016.9
03 22:54 S 3 10.00 Fair CLR 54 48 62.1 54 80% 30 1017.0
03 21:54 S 5 10.00 Fair CLR 54 48 80% 29.99 1016.8
03 20:54 W 5 10.00 Fair CLR 55 48.9 80% 29.97 1016.0
03 19:54 SW 7 10.00 Fair CLR 57 48.9 74% 29.95 1015.4
03 18:54 S 10 10.00 A Few Clouds FEW024 59 46.9 64% 29.94 1015.1
03 17:54 SW 13 G 24 10.00 Overcast OVC055 62.1 45 54% 29.94 1015.0
03 16:54 SW 16 G 25 10.00 Overcast OVC055 62.1 44.1 64 55.9 52% 29.93 1014.8
03 15:54 SW 17 G 24 10.00 Overcast OVC049 62.1 46 56% 29.93 1014.7
03 14:54 SW 14 G 24 10.00 Mostly Cloudy BKN049 62.1 46.9 58% 29.94 1015.0
03 13:54 SW 14 G 24 10.00 Overcast FEW035 OVC046 62.1 44.1 52% 29.94 1015.1
03 12:54 SW 13 10.00 Overcast OVC045 61 44.1 54% 29.96 1015.5
03 11:54 SW 8 10.00 Overcast FEW026 OVC046 60.1 45 58% 29.96 1015.7
03 10:54 S 7 10.00 Overcast BKN022 OVC032 55.9 48.9 57.9 53.1 77% 29.96 1015.7
03 09:54 SW 6 10.00 Overcast BKN020 OVC031 57 48.9 74% 29.95 1015.4
03 08:54 E 3 10.00 Overcast BKN020 OVC031 55 48.9 80% 29.95 1015.2
03 07:54 S 5 2.50 Fog/Mist BKN012 OVC025 54 51.1 90% 29.94 1015.0
03 06:54 SW 5 8.00 Overcast BKN013 BKN019 OVC034 54 50 87% 29.91 1014.2
03 05:54 S 3 10.00 Overcast FEW015 BKN030 OVC035 54 48.9 83% 29.9 1013.6
03 04:54 S 3 9.00 Overcast BKN013 OVC020 54 48.9 55.9 54 83% 29.89 1013.3
03 03:54 W 5 10.00 Overcast SCT020 SCT024 OVC030 55 48 77% 29.9 1013.5
03 02:54 W 8 10.00 Overcast OVC019 55 48 77% 29.9 1013.5
03 01:54 W 7 10.00 Overcast OVC016 55 48.9 80% 29.9 1013.7
03 00:54 SW 7 10.00 Overcast OVC020 55 48 77% 29.91 1013.9
02 23:54 SW 5 10.00 Overcast OVC021 55 48 77% 29.91 1013.9
02 22:54 W 8 10.00 Overcast OVC017 55.9 48 57.9 55.9 75% 29.91 1014.1
02 21:54 W 7 10.00 Overcast OVC020 55.9 48 75% 29.92 1014.5
02 20:54 W 8 10.00 Overcast OVC019 55.9 48 75% 29.91 1014.1
02 19:54 SW 8 10.00 Overcast OVC021 55.9 46.9 72% 29.9 1013.7
02 18:54 W 9 10.00 Overcast OVC020 57 48 72% 29.9 1013.5
02 17:54 W 10 10.00 Overcast OVC018 57 48 72% 29.9 1013.7
02 16:54 W 9 10.00 Overcast OVC018 57.9 48.9 60.1 57 72% 29.91 1013.9
02 15:54 W 9 10.00 Overcast OVC015 57.9 51.1 78% 29.92 1014.2
02 14:54 NW 9 10.00 Overcast OVC016 57.9 52 81% 29.94 1015.1
02 13:54 W 9 10.00 Overcast BKN017 OVC023 57.9 50 75% 29.95 1015.5
02 12:54 NW 8 10.00 Overcast OVC025 59 51.1 75% 29.98 1016.2
02 11:54 SW 8 10.00 Overcast OVC023 60.1 48.9 67% 29.99 1016.7
02 10:54 W 6 10.00 Overcast BKN021 OVC026 57.9 48 59 54 70% 29.99 1016.7
02 09:54 W 7 10.00 Overcast OVC018 57 48.9 74% 29.98 1016.5
02 08:54 W 3 10.00 Overcast OVC014 55.9 48.9 77% 29.98 1016.3
02 07:54 Calm 10.00 Overcast OVC014 55 48 77% 29.96 1015.7
02 06:54 Calm 10.00 Overcast OVC014 55 48 77% 29.95 1015.3
02 05:54 W 6 10.00 Overcast OVC011 54 48.9 83% 29.95 1015.3
02 04:54 SW 8 10.00 Overcast OVC011 55 48.9 55 54 80% 29.93 1014.8
02 03:54 SW 6 10.00 Overcast OVC011 55 48.9 80% 29.93 1014.8
02 02:54 SW 8 10.00 Overcast OVC010 55 50 83% 29.94 1015.1
02 01:54 SW 6 10.00 Overcast OVC011 55 50 83% 29.96 1015.7
02 00:54 SW 7 10.00 Overcast OVC010 54 48.9 83% 29.97 1016.0
01 23:54 SW 8 10.00 Overcast OVC010 55 50 83% 29.97 1016.1
01 22:54 W 7 10.00 Overcast OVC010 55 50 59 55 83% 29.98 1016.3
01 21:54 SW 9 10.00 Overcast OVC010 55 50 83% 29.98 1016.3
01 20:54 W 7 10.00 Overcast OVC010 55 50 83% 29.96 1015.7
01 19:54 W 7 10.00 Overcast OVC010 55.9 50 81% 29.95 1015.5
01 18:54 SW 9 10.00 Mostly Cloudy BKN012 57 51.1 81% 29.95 1015.4
01 17:54 SW 10 10.00 Overcast OVC012 57 51.1 81% 29.95 1015.4
01 16:54 W 14 10.00 Mostly Cloudy BKN013 57.9 51.1 61 54 78% 29.96 1015.6
01 15:54 W 14 10.00 Partly Cloudy SCT015 60.1 51.1 72% 29.97 1015.9
01 14:54 W 12 10.00 Partly Cloudy SCT013 60.1 51.1 72% 29.98 1016.5
01 13:54 NW 12 10.00 Partly Cloudy SCT013 59 51.1 75% 29.99 1016.9
01 12:54 W 9 10.00 Mostly Cloudy BKN013 59 51.1 75% 30 1017.1
Date Time (pdt) Wind (mph) Vis. (mi.) Weather Sky Cond. Air Dwpt Max. Min. Relative Humidity Wind Chill (°F) Heat Index (°F) altimeter (in) sea level (mb) 1 hr 3 hr 6 hr
6 hour
Temperature (ºF) Pressure Precipitation (in)